• Join FlightAware (Why Join?)
  • Login
  • US Flag 
04:11PM EDT


 

Airport Tracker/Info


-or-


 

Live Flight TrackerFlight Track Log ✈ SWA3675 ✈ 26-Apr-2013 ✈ KALB - KBWI

Flight Track Log - Related Links

Times and Time Zones

All times are in EDT time to prevent confusion due to time zone crossing. See the SWA3675 flight status page for this flight to view local times or setup timezone preferences in your user account.

Time Position Orientation Groundspeed Altitude Reporting Facility
EDT Latitude Longitude Course Direction KTS MPH feet Rate Location/Type
05:53PM 42.7483 -73.8228 266° West 153 176 1,200  Level Boston Center
05:53PM 42.7456 -73.8733 266° West 172 198 3,000 3,180 Climbing Boston Center
05:55PM 42.7592 -73.9558 283° West 191 220 7,600 3,540 Climbing Boston Center
05:56PM 42.8064 -74.0108 319° Northwest 191 220 10,800 3,600 Climbing Boston Center
05:57PM 42.7886 -74.0867 252° West 201 231 14,800 3,000 Climbing Boston Center
05:58PM 42.7172 -74.1272 203° Southwest 236 272 16,900 2,040 Climbing Boston Center
05:59PM 42.6247 -74.1756 201° Southwest 324 373 18,900 2,400 Climbing Boston Center
06:00PM 42.5228 -74.1642 175° South 355 409 21,700 2,700 Climbing Boston Center
06:01PM 42.4217 -74.0911 152° Southeast 364 419 24,300 2,100 Climbing Boston Center
06:02PM 42.3075 -74.0683 172° South 396 456 26,000 840 Climbing Boston Center
06:03PM 42.1967 -74.0936 190° South 401 461 26,000  Level Boston Center
06:04PM 42.0817 -74.1214 190° South 411 473 26,000 600 Level Boston Center
06:06PM 41.8497 -74.1683 189° South 422 486 27,900 660 Climbing New York Center
06:07PM 41.7389 -74.1931 189° South 438 504 28,000  Climbing New York Center
06:08PM 41.6172 -74.2200 189° South 453 521 28,000  Level New York Center
06:09PM 41.4853 -74.2492 189° South 448 516 28,000  Level New York Center
06:10PM 41.3636 -74.2761 189° South 448 516 28,000  Level New York Center
06:11PM 41.2483 -74.2978 188° South 459 528 28,000  Level New York Center
06:12PM 41.1250 -74.3217 188° South 464 534 28,000  Level New York Center
06:13PM 41.0011 -74.3536 191° South 464 534 28,000  Level New York Center
06:14PM 40.8753 -74.3825 190° South 464 534 28,000  Level New York Center
06:15PM 40.7692 -74.4428 203° Southwest 455 524 28,000  Level New York Center
06:16PM 40.6967 -74.5592 231° Southwest 403 464 28,000 -60 Level New York Center
06:17PM 40.6239 -74.6783 231° Southwest 409 471 27,900 -1,380 Descending New York Center
06:18PM 40.5450 -74.7939 228° Southwest 422 486 25,300 -2,640 Descending New York Center
06:19PM 40.4706 -74.9042 228° Southwest 422 486 22,700 -2,520 Descending New York Center
06:20PM 40.3981 -75.0033 226° Southwest 409 471 20,200 -2,340 Descending New York Center
06:21PM 40.3192 -75.1156 227° Southwest 388 447 18,000 -1,140 Descending New York Center
06:22PM 40.2508 -75.2119 227° Southwest 378 435 18,000  Level New York Center
06:23PM 40.1869 -75.3003 227° Southwest 378 435 18,000  Level New York Center
06:24PM 40.1186 -75.3961 227° Southwest 378 435 18,000  Level New York Center
06:25PM 40.0481 -75.4972 228° Southwest 378 435 18,000  Level New York Center
06:26PM 39.9775 -75.5928 226° Southwest 373 429 18,000  Level New York Center
06:27PM 39.9108 -75.6936 229° Southwest 373 429 18,000 -180 Level New York Center
06:28PM 39.8519 -75.8003 234° Southwest 373 429 17,700 -1,800 Descending New York Center
06:29PM 39.7500 -75.9833 234° Southwest 344 396 13,300 -2,160 Descending Potomac TRACON
06:30PM 39.7000 -76.0833 237° Southwest 313 360 12,200 -1,020 Descending Potomac TRACON
06:31PM 39.6500 -76.1667 232° Southwest 280 322 11,300 -1,260 Descending Potomac TRACON
06:32PM 39.6167 -76.2500 243° Southwest 272 313 9,700 -1,320 Descending Potomac TRACON
06:33PM 39.5667 -76.3167 226° Southwest 271 312 8,700 -1,320 Descending Potomac TRACON
06:34PM 39.5167 -76.4000 232° Southwest 272 313 7,100 -1,500 Descending Potomac TRACON
06:35PM 39.4500 -76.4167 191° South 270 311 5,800 -1,320 Descending Potomac TRACON
06:36PM 39.3833 -76.4500 201° Southwest 272 313 4,500 -1,200 Descending Potomac TRACON
06:37PM 39.3000 -76.4833 197° South 262 302 3,300 -720 Descending Potomac TRACON
06:38PM 39.2333 -76.4833 180° South 260 299 3,000 -300 Descending Potomac TRACON